Tabea — CQDB — position and weather

sailwx.info

Track history (hours):
 
Tides and Currents Weather Stations Pressure Air Temp Water Temp Dewpoint Dewpoint Depression Visibility Wind Speed Wind Dir Waves Ship Positions

Tabea

Last reported at 2018-Jan-22 08:28 UTC. Time now 2018-Jan-22 18:01 UTC.
Position S 23°12' W 043°23'.

Length 276 m; draft 11.8 m.

Type: Ship (hazmat cat A). MMSI: 255805778.

Date/timePositionNaut miles runAvg speedWind from/ knotsBaromVisibWave heightAir tempDewpointWater temp
2018-Jan-22 08:28S 23°12' W 043°23'510.5
2018-Jan-22 07:59S 23°14' W 043°28'6 9.9
2018-Jan-22 07:25S 23°17' W 043°33'4 9.8
2018-Jan-22 07:00S 23°18' W 043°37'3810.7
2018-Jan-22 03:30S 23°36' W 044°14'1210.7
2018-Jan-22 02:24S 23°41' W 044°25'109 9.0
2018-Jan-21 14:21S 24°03' W 046°21'310.0
2018-Jan-21 14:00S 23°60' W 046°20'3 4.5
2018-Jan-21 13:26S 23°58' W 046°18'0 0.5
2018-Jan-21 12:59S 23°58' W 046°18'0 0.0
2018-Jan-21 12:29S 23°58' W 046°18'0 0.0
2018-Jan-21 11:47S 23°58' W 046°18'0 0.0
2018-Jan-21 11:29S 23°58' W 046°18'0 0.0
2018-Jan-21 10:59S 23°58' W 046°18'0 0.0
2018-Jan-21 10:29S 23°58' W 046°18'0 0.0
2018-Jan-21 09:59S 23°58' W 046°18'0 0.0
2018-Jan-21 09:29S 23°58' W 046°18'0 0.0
2018-Jan-21 08:59S 23°58' W 046°18'0 0.0
2018-Jan-21 08:29S 23°58' W 046°18'0 0.0
2018-Jan-21 07:59S 23°58' W 046°18'0 0.0
2018-Jan-21 07:17S 23°58' W 046°18'0 0.0
2018-Jan-21 06:59S 23°58' W 046°18'0 0.0
2018-Jan-21 06:29S 23°58' W 046°18'0 0.0
2018-Jan-21 05:59S 23°58' W 046°18'0 0.0
2018-Jan-21 05:29S 23°58' W 046°18'0 0.0
2018-Jan-21 04:53S 23°58' W 046°18'0 0.0
2018-Jan-21 04:29S 23°58' W 046°18'0 0.0
2018-Jan-21 03:59S 23°58' W 046°18'0 0.0
2018-Jan-21 03:29S 23°58' W 046°18'0 0.0
2018-Jan-21 02:59S 23°58' W 046°18'0 0.0
2018-Jan-21 02:23S 23°58' W 046°18'0 0.0
2018-Jan-21 01:59S 23°58' W 046°18'0 0.0
2018-Jan-21 01:29S 23°58' W 046°18'0 0.0
2018-Jan-21 00:56S 23°58' W 046°18'0 0.0
2018-Jan-21 00:29S 23°58' W 046°18'0 0.0
2018-Jan-20 22:41S 23°58' W 046°18'0 0.0
2018-Jan-20 22:23S 23°58' W 046°18'0 0.0
2018-Jan-20 21:59S 23°58' W 046°18'0 0.0
2018-Jan-20 21:29S 23°58' W 046°18'0 0.0
2018-Jan-20 20:56S 23°58' W 046°18'0 0.0
2018-Jan-20 20:29S 23°58' W 046°18'0 0.0
2018-Jan-20 19:50S 23°58' W 046°18'0 0.0
2018-Jan-20 19:29S 23°58' W 046°18'0 0.0
2018-Jan-20 18:59S 23°58' W 046°18'0 0.0
2018-Jan-20 18:29S 23°58' W 046°18'0 0.0
2018-Jan-20 17:59S 23°58' W 046°18'0 0.0
2018-Jan-20 17:29S 23°58' W 046°18'0 0.0
2018-Jan-20 16:59S 23°58' W 046°18'1 1.7
2018-Jan-20 16:30S 23°59' W 046°17'4 7.3
2018-Jan-20 15:58S 24°01' W 046°21'  
Track history (hours):
 
Tides and Currents Weather Stations Pressure Air Temp Water Temp Dewpoint Dewpoint Depression Visibility Wind Speed Wind Dir Waves Ship Positions

Tabea

Last reported at 2018-Jan-22 08:28 UTC. Time now 2018-Jan-22 18:01 UTC.
Position S 23°12' W 043°23'.

Length 276 m; draft 11.8 m.

Type: Ship (hazmat cat A). MMSI: 255805778.

Date/timePositionNaut miles runAvg speedWind from/ knotsBaromVisibWave heightAir tempDewpointWater temp
2018-Jan-22 08:28S 23°12' W 043°23'510.5
2018-Jan-22 07:59S 23°14' W 043°28'6 9.9
2018-Jan-22 07:25S 23°17' W 043°33'4 9.8
2018-Jan-22 07:00S 23°18' W 043°37'3810.7
2018-Jan-22 03:30S 23°36' W 044°14'1210.7
2018-Jan-22 02:24S 23°41' W 044°25'109 9.0
2018-Jan-21 14:21S 24°03' W 046°21'310.0
2018-Jan-21 14:00S 23°60' W 046°20'3 4.5
2018-Jan-21 13:26S 23°58' W 046°18'0 0.5
2018-Jan-21 12:59S 23°58' W 046°18'0 0.0
2018-Jan-21 12:29S 23°58' W 046°18'0 0.0
2018-Jan-21 11:47S 23°58' W 046°18'0 0.0
2018-Jan-21 11:29S 23°58' W 046°18'0 0.0
2018-Jan-21 10:59S 23°58' W 046°18'0 0.0
2018-Jan-21 10:29S 23°58' W 046°18'0 0.0
2018-Jan-21 09:59S 23°58' W 046°18'0 0.0
2018-Jan-21 09:29S 23°58' W 046°18'0 0.0
2018-Jan-21 08:59S 23°58' W 046°18'0 0.0
2018-Jan-21 08:29S 23°58' W 046°18'0 0.0
2018-Jan-21 07:59S 23°58' W 046°18'0 0.0
2018-Jan-21 07:17S 23°58' W 046°18'0 0.0
2018-Jan-21 06:59S 23°58' W 046°18'0 0.0
2018-Jan-21 06:29S 23°58' W 046°18'0 0.0
2018-Jan-21 05:59S 23°58' W 046°18'0 0.0
2018-Jan-21 05:29S 23°58' W 046°18'0 0.0
2018-Jan-21 04:53S 23°58' W 046°18'0 0.0
2018-Jan-21 04:29S 23°58' W 046°18'0 0.0
2018-Jan-21 03:59S 23°58' W 046°18'0 0.0
2018-Jan-21 03:29S 23°58' W 046°18'0 0.0
2018-Jan-21 02:59S 23°58' W 046°18'0 0.0
2018-Jan-21 02:23S 23°58' W 046°18'0 0.0
2018-Jan-21 01:59S 23°58' W 046°18'0 0.0
2018-Jan-21 01:29S 23°58' W 046°18'0 0.0
2018-Jan-21 00:56S 23°58' W 046°18'0 0.0
2018-Jan-21 00:29S 23°58' W 046°18'0 0.0
2018-Jan-20 22:41S 23°58' W 046°18'0 0.0
2018-Jan-20 22:23S 23°58' W 046°18'0 0.0
2018-Jan-20 21:59S 23°58' W 046°18'0 0.0
2018-Jan-20 21:29S 23°58' W 046°18'0 0.0
2018-Jan-20 20:56S 23°58' W 046°18'0 0.0
2018-Jan-20 20:29S 23°58' W 046°18'0 0.0
2018-Jan-20 19:50S 23°58' W 046°18'0 0.0
2018-Jan-20 19:29S 23°58' W 046°18'0 0.0
2018-Jan-20 18:59S 23°58' W 046°18'0 0.0
2018-Jan-20 18:29S 23°58' W 046°18'0 0.0
2018-Jan-20 17:59S 23°58' W 046°18'0 0.0
2018-Jan-20 17:29S 23°58' W 046°18'0 0.0
2018-Jan-20 16:59S 23°58' W 046°18'1 1.7
2018-Jan-20 16:30S 23°59' W 046°17'4 7.3
2018-Jan-20 15:58S 24°01' W 046°21'  

Dump ship's entire track history